Time;durP1;ratioP1;P1;durP2;ratioP2;P2;SDS_P1;SDS_P2;PMS_P1;PMS_P2;Temp;Humidity;BMP_temperature;BMP_pressure;BME280_temperature;BME280_humidity;BME280_pressure;Samples;Min_cycle;Max_cycle;Signal;HPM_P1;HPM_P2
2021/08/17 00:01:39;;;;;;;19.30;10.95;;;21.10;99.90;;;;;;5023288;28;20184;-94
2021/08/17 00:04:05;;;;;;;16.67;10.43;;;21.10;99.90;;;;;;5033231;28;20223;-94
2021/08/17 00:06:31;;;;;;;16.58;11.57;;;21.10;99.90;;;;;;5019912;28;20172;-94
2021/08/17 00:08:56;;;;;;;13.98;10.55;;;21.10;99.90;;;;;;5012842;28;20267;-92
2021/08/17 00:11:22;;;;;;;15.15;10.20;;;21.20;99.90;;;;;;5006015;28;20787;-91
2021/08/17 00:13:48;;;;;;;18.88;11.25;;;21.10;99.90;;;;;;5019993;28;20173;-94
2021/08/17 00:16:14;;;;;;;17.02;11.05;;;21.20;99.90;;;;;;5009557;28;20184;-94
2021/08/17 00:18:40;;;;;;;17.00;11.45;;;21.20;99.90;;;;;;5020020;28;20179;-93
2021/08/17 00:21:06;;;;;;;20.02;11.25;;;21.20;99.90;;;;;;5036234;28;20189;-93
2021/08/17 00:23:32;;;;;;;16.77;10.45;;;21.20;99.90;;;;;;5008535;28;20200;-92
2021/08/17 00:25:57;;;;;;;14.57;11.10;;;21.20;99.90;;;;;;5022950;28;20242;-93
2021/08/17 00:28:23;;;;;;;21.55;11.27;;;21.20;99.90;;;;;;5031373;28;20672;-94
2021/08/17 00:30:49;;;;;;;20.75;11.30;;;21.20;99.90;;;;;;5036916;28;20641;-93
2021/08/17 00:33:15;;;;;;;15.35;11.38;;;;;;;;;;5008485;28;20191;-94
2021/08/17 00:35:40;;;;;;;22.48;12.07;;;21.20;99.90;;;;;;5037365;28;20200;-93
2021/08/17 00:38:06;;;;;;;19.63;11.80;;;21.10;99.90;;;;;;5015333;28;20640;-94
2021/08/17 00:40:33;;;;;;;21.15;11.73;;;21.10;99.90;;;;;;5019365;28;20646;-93
2021/08/17 00:42:59;;;;;;;13.27;10.68;;;21.10;99.90;;;;;;5022811;28;20205;-93
2021/08/17 00:45:27;;;;;;;15.07;11.70;;;21.10;99.90;;;;;;5024219;28;20693;-92
2021/08/17 00:47:56;;;;;;;17.10;11.77;;;21.10;99.90;;;;;;5007262;28;20173;-92
2021/08/17 00:50:26;;;;;;;19.45;11.27;;;21.10;99.90;;;;;;5018682;28;20283;-92
2021/08/17 00:52:54;;;;;;;18.40;11.90;;;21.10;99.90;;;;;;5035565;28;20189;-92
2021/08/17 00:55:20;;;;;;;16.13;12.30;;;21.10;99.90;;;;;;5018918;28;20172;-94
2021/08/17 00:57:47;;;;;;;19.20;11.95;;;21.10;99.90;;;;;;5019402;28;20184;-93
2021/08/17 01:00:13;;;;;;;20.45;12.90;;;21.10;99.90;;;;;;5030368;28;20188;-93
2021/08/17 01:02:40;;;;;;;19.63;12.45;;;21.10;99.90;;;;;;5027038;28;20587;-92
2021/08/17 01:05:08;;;;;;;19.60;12.40;;;21.10;99.90;;;;;;5036147;28;20317;-94
2021/08/17 01:07:34;;;;;;;19.55;12.65;;;21.10;99.90;;;;;;5028185;28;20189;-94
2021/08/17 01:09:59;;;;;;;18.90;12.95;;;21.20;99.90;;;;;;5021917;28;20184;-94
2021/08/17 01:12:25;;;;;;;18.17;11.75;;;21.20;99.90;;;;;;5036364;28;20634;-93
2021/08/17 01:14:51;;;;;;;16.55;12.23;;;21.30;99.90;;;;;;5027787;28;20198;-94
2021/08/17 01:17:21;;;;;;;16.98;12.20;;;21.30;99.90;;;;;;5035106;28;20256;-94
2021/08/17 01:19:48;;;;;;;16.38;12.00;;;21.30;99.90;;;;;;5018471;28;20200;-95
2021/08/17 01:22:14;;;;;;;19.35;12.25;;;21.30;99.90;;;;;;5018448;28;20299;-93
2021/08/17 01:24:40;;;;;;;17.35;9.68;;;21.40;99.90;;;;;;5024545;28;20204;-93
2021/08/17 01:27:05;;;;;;;146.52;11.20;;;21.40;99.90;;;;;;5001915;28;20177;-94
2021/08/17 01:29:32;;;;;;;53.55;6.13;;;21.20;99.90;;;;;;5036205;28;20188;-94
2021/08/17 01:31:58;;;;;;;9.02;2.47;;;20.80;99.90;;;;;;5036756;28;20665;-94
2021/08/17 01:34:24;;;;;;;7.68;1.92;;;20.80;99.90;;;;;;5003269;28;20293;-94
2021/08/17 01:36:50;;;;;;;6.18;2.15;;;20.50;99.90;;;;;;5003661;28;20306;-95
2021/08/17 01:39:16;;;;;;;4.40;1.73;;;19.90;99.90;;;;;;5035676;28;20234;-92
2021/08/17 01:41:43;;;;;;;3.75;1.85;;;19.50;99.90;;;;;;5058636;28;20164;-93
2021/08/17 01:44:15;;;;;;;4.70;2.20;;;19.30;99.90;;;;;;5041826;28;20165;-93
2021/08/17 01:46:42;;;;;;;5.13;1.52;;;19.20;99.90;;;;;;5039641;28;20161;-91
2021/08/17 01:49:08;;;;;;;2.72;1.75;;;19.20;99.90;;;;;;5021261;28;20185;-94
2021/08/17 01:51:35;;;;;;;6.45;2.63;;;19.10;99.90;;;;;;5057470;28;20177;-93
2021/08/17 01:54:03;;;;;;;9.10;3.30;;;19.10;99.90;;;;;;5024020;28;20173;-93
2021/08/17 01:56:28;;;;;;;4.95;3.20;;;19.00;99.90;;;;;;5030748;28;20191;-94
2021/08/17 01:58:54;;;;;;;3.28;2.55;;;19.20;99.90;;;;;;5018029;28;20172;-94
2021/08/17 02:01:20;;;;;;;11.10;6.78;;;19.20;99.90;;;;;;5035321;28;20189;-92
2021/08/17 02:03:46;;;;;;;7.05;4.03;;;19.20;99.90;;;;;;5036053;28;20334;-94
2021/08/17 02:06:12;;;;;;;10.55;3.60;;;19.20;99.90;;;;;;5033404;28;20180;-93
2021/08/17 02:08:40;;;;;;;5.65;4.03;;;19.20;99.90;;;;;;5039004;28;20192;-93
2021/08/17 02:11:05;;;;;;;7.65;3.60;;;19.30;99.90;;;;;;5054364;28;20268;-94
2021/08/17 02:13:31;;;;;;;6.70;3.22;;;19.20;99.90;;;;;;5039144;28;20176;-92
2021/08/17 02:15:59;;;;;;;5.90;3.25;;;;;;;;;;5039051;28;20184;-95
2021/08/17 02:18:25;;;;;;;11.75;4.78;;;19.30;99.90;;;;;;5055062;28;20160;-91
2021/08/17 02:20:51;;;;;;;8.10;3.85;;;19.20;99.90;;;;;;5012123;28;20193;-93
2021/08/17 02:23:16;;;;;;;6.90;3.45;;;19.20;99.90;;;;;;5018878;28;20676;-94
2021/08/17 02:25:42;;;;;;;6.63;3.85;;;19.30;99.90;;;;;;5039464;28;20187;-93
2021/08/17 02:28:08;;;;;;;7.82;3.55;;;19.30;99.90;;;;;;5020390;28;20676;-94
2021/08/17 02:30:33;;;;;;;8.27;3.50;;;19.30;99.90;;;;;;5018768;28;20184;-93
2021/08/17 02:32:59;;;;;;;7.60;3.10;;;19.30;99.90;;;;;;5003290;28;20188;-94
2021/08/17 02:35:25;;;;;;;5.93;3.40;;;19.20;99.90;;;;;;5035614;28;20648;-94
2021/08/17 02:37:50;;;;;;;6.22;3.25;;;19.20;99.90;;;;;;5018843;28;20222;-94
2021/08/17 02:40:16;;;;;;;6.15;3.92;;;19.20;99.90;;;;;;5018995;28;20172;-95
2021/08/17 02:42:42;;;;;;;9.25;4.07;;;19.20;99.90;;;;;;5018215;28;20200;-94
2021/08/17 02:45:08;;;;;;;6.75;4.45;;;19.10;99.90;;;;;;5018162;28;20645;-94
2021/08/17 02:47:34;;;;;;;9.15;5.10;;;19.20;99.90;;;;;;4984027;28;20177;-93
2021/08/17 02:50:00;;;;;;;10.93;5.32;;;19.20;99.90;;;;;;5034670;28;20177;-94
2021/08/17 02:52:26;;;;;;;9.55;5.95;;;19.20;99.90;;;;;;5034457;28;20182;-94
2021/08/17 02:54:52;;;;;;;9.32;5.38;;;;;;;;;;5017357;28;20282;-94
2021/08/17 02:57:18;;;;;;;7.50;5.38;;;19.20;99.90;;;;;;5033707;28;20271;-95
2021/08/17 02:59:44;;;;;;;11.18;4.22;;;19.20;99.90;;;;;;5000927;28;20172;-96
2021/08/17 03:02:10;;;;;;;16.45;6.20;;;19.20;99.90;;;;;;5017365;28;20208;-94
2021/08/17 03:04:37;;;;;;;14.15;6.75;;;20.80;99.90;;;;;;5003013;28;20184;-95
2021/08/17 03:07:03;;;;;;;17.48;8.20;;;19.20;99.90;;;;;;5017024;28;20192;-94
2021/08/17 03:09:29;;;;;;;18.70;7.47;;;19.30;99.90;;;;;;5016842;28;20180;-93
2021/08/17 03:11:55;;;;;;;15.15;7.93;;;19.20;99.90;;;;;;5034365;28;20326;-94
2021/08/17 03:14:20;;;;;;;15.02;7.80;;;19.10;99.90;;;;;;5016716;28;20172;-93
2021/08/17 03:16:46;;;;;;;12.98;7.32;;;19.10;99.90;;;;;;5000666;28;20212;-95
2021/08/17 03:19:12;;;;;;;13.90;8.05;;;18.90;99.90;;;;;;5034538;28;20259;-96
2021/08/17 03:21:37;;;;;;;17.70;8.63;;;19.10;99.90;;;;;;5016526;28;20172;-94
2021/08/17 03:24:03;;;;;;;14.30;8.93;;;19.10;99.90;;;;;;5016892;28;20267;-93
2021/08/17 03:26:29;;;;;;;13.50;9.27;;;19.10;99.90;;;;;;4999653;28;20535;-93
2021/08/17 03:28:54;;;;;;;18.27;9.95;;;19.20;99.90;;;;;;5034322;28;20180;-94
2021/08/17 03:31:20;;;;;;;14.98;10.45;;;19.20;99.90;;;;;;5016283;28;20181;-94
2021/08/17 03:33:46;;;;;;;13.88;10.18;;;;;;;;;;5016541;28;20330;-92
2021/08/17 03:36:12;;;;;;;15.90;10.35;;;19.10;99.90;;;;;;5032219;28;20231;-93
2021/08/17 03:38:38;;;;;;;23.48;10.52;;;19.00;99.90;;;;;;5015779;28;20208;-93
2021/08/17 03:41:04;;;;;;;13.40;9.48;;;18.90;99.90;;;;;;5015805;28;20176;-92
2021/08/17 03:43:30;;;;;;;11.57;8.55;;;18.80;99.90;;;;;;4999063;28;20200;-92
2021/08/17 03:45:56;;;;;;;14.48;8.43;;;18.60;99.90;;;;;;5016892;28;20275;-93
2021/08/17 03:48:22;;;;;;;16.20;8.65;;;18.50;99.90;;;;;;5037575;28;20654;-94
2021/08/17 03:50:48;;;;;;;14.75;8.15;;;18.40;99.90;;;;;;5003109;28;20181;-94
2021/08/17 03:53:14;;;;;;;16.83;7.35;;;18.30;99.90;;;;;;5000315;28;20189;-93
2021/08/17 03:55:40;;;;;;;13.25;7.88;;;18.20;99.90;;;;;;5016808;28;20195;-96
2021/08/17 03:58:05;;;;;;;10.95;7.90;;;18.20;99.90;;;;;;5016650;28;20177;-93
2021/08/17 04:00:35;;;;;;;11.95;8.88;;;18.10;99.90;;;;;;5016461;28;20648;-96
2021/08/17 04:03:00;;;;;;;10.13;7.72;;;18.10;99.90;;;;;;5016115;28;20216;-95
2021/08/17 04:05:26;;;;;;;10.27;7.50;;;18.10;99.90;;;;;;5000155;28;20243;-94
2021/08/17 04:07:53;;;;;;;12.13;7.57;;;18.10;99.90;;;;;;5000076;28;20669;-94
2021/08/17 04:10:19;;;;;;;13.57;8.40;;;18.00;99.90;;;;;;5016017;28;20242;-94
2021/08/17 04:12:45;;;;;;;13.10;8.15;;;17.90;99.90;;;;;;5015869;28;20184;-93
2021/08/17 04:15:11;;;;;;;12.60;7.45;;;17.90;99.90;;;;;;5034127;28;20176;-93
2021/08/17 04:17:37;;;;;;;16.33;8.57;;;17.90;99.90;;;;;;5051414;28;20168;-93
2021/08/17 04:20:08;;;;;;;12.02;7.95;;;17.90;99.90;;;;;;5034309;28;20264;-94
2021/08/17 04:22:33;;;;;;;12.40;8.93;;;17.80;99.90;;;;;;5030701;28;20243;-92
2021/08/17 04:24:59;;;;;;;14.93;8.73;;;17.80;99.90;;;;;;5040719;28;20172;-94
2021/08/17 04:27:25;;;;;;;14.52;8.00;;;17.70;99.90;;;;;;5040646;28;20169;-92
2021/08/17 04:29:50;;;;;;;12.95;8.73;;;17.80;99.90;;;;;;5024074;28;20185;-93
2021/08/17 04:32:17;;;;;;;12.70;8.45;;;18.10;99.90;;;;;;5057689;28;20176;-94
2021/08/17 04:34:43;;;;;;;12.80;8.40;;;17.80;99.90;;;;;;5021993;28;20161;-93
2021/08/17 04:37:08;;;;;;;13.70;7.50;;;17.70;99.90;;;;;;5034938;28;20215;-93
2021/08/17 04:39:35;;;;;;;10.45;7.03;;;;;;;;;;5004287;28;20165;-91
2021/08/17 04:42:01;;;;;;;8.30;6.13;;;17.50;99.90;;;;;;5023564;28;20522;-91
2021/08/17 04:44:28;;;;;;;10.27;6.40;;;17.50;99.90;;;;;;5040349;28;20165;-96
2021/08/17 04:46:53;;;;;;;10.75;6.95;;;17.30;99.90;;;;;;5056571;28;20200;-94
2021/08/17 04:49:19;;;;;;;12.77;7.00;;;16.90;99.90;;;;;;5056619;28;20200;-92
2021/08/17 04:54:23;;;;;;;11.70;7.03;;;17.30;99.90;;;;;;5438283;22;20241;-95
2021/08/17 04:56:49;;;;;;;13.07;7.70;;;16.90;99.90;;;;;;5058618;28;20179;-93
2021/08/17 04:59:15;;;;;;;13.25;7.75;;;;;;;;;;5054943;28;20609;-92
2021/08/17 05:01:41;;;;;;;12.13;7.32;;;17.20;99.90;;;;;;5069938;28;20183;-95
2021/08/17 05:04:08;;;;;;;13.02;8.30;;;;;;;;;;5066386;28;20195;-96
2021/08/17 05:06:37;;;;;;;12.98;8.75;;;17.20;99.90;;;;;;5050006;28;20184;-94
2021/08/17 05:09:04;;;;;;;11.85;7.57;;;17.20;99.90;;;;;;5054782;28;20184;-96
2021/08/17 05:11:30;;;;;;;10.43;7.93;;;17.30;99.90;;;;;;5067093;28;20187;-94
2021/08/17 05:13:56;;;;;;;10.90;7.60;;;;;;;;;;5040195;28;20262;-95
2021/08/17 05:16:21;;;;;;;11.60;7.32;;;17.20;99.90;;;;;;5028084;28;20180;-95
2021/08/17 05:18:47;;;;;;;12.80;6.93;;;17.30;99.90;;;;;;5051222;28;20230;-96
2021/08/17 05:21:13;;;;;;;10.05;7.30;;;17.10;99.90;;;;;;5027335;28;20209;-95
2021/08/17 05:23:44;;;;;;;17.75;7.32;;;17.20;99.90;;;;;;5040201;28;20687;-94
2021/08/17 05:26:10;;;;;;;8.23;6.60;;;17.40;99.90;;;;;;5057407;28;20215;-95
2021/08/17 05:28:59;;;;;;;12.93;7.90;;;17.20;99.90;;;;;;5038348;28;20195;-96
2021/08/17 05:31:32;;;;;;;15.75;6.72;;;19.00;99.90;;;;;;5047993;28;20287;-95
2021/08/17 05:34:08;;;;;;;10.93;6.20;;;18.20;99.90;;;;;;5065068;28;20199;-95
2021/08/17 05:36:34;;;;;;;11.07;7.10;;;18.20;99.90;;;;;;5043272;28;20188;-96
2021/08/17 05:39:00;;;;;;;12.90;7.65;;;17.30;99.90;;;;;;5055783;28;20625;-95
2021/08/17 05:41:26;;;;;;;14.68;7.22;;;;;;;;;;5051101;28;20184;-94
2021/08/17 05:43:51;;;;;;;13.13;8.63;;;17.30;99.90;;;;;;5033374;28;20261;-93
2021/08/17 05:46:18;;;;;;;11.70;8.30;;;;;;;;;;5053050;28;20180;-94
2021/08/17 05:48:43;;;;;;;12.57;8.85;;;17.30;99.90;;;;;;5038208;28;20258;-91
2021/08/17 05:51:10;;;;;;;10.70;7.65;;;18.10;99.90;;;;;;5037900;28;20658;-95
2021/08/17 05:53:35;;;;;;;13.95;7.72;;;17.20;99.90;;;;;;5045581;28;20281;-96
2021/08/17 05:56:01;;;;;;;13.68;7.43;;;17.20;99.90;;;;;;5041842;28;20192;-95
2021/08/17 05:58:26;;;;;;;13.15;8.32;;;17.30;99.90;;;;;;5024035;28;20187;-94
2021/08/17 06:00:52;;;;;;;11.02;7.28;;;17.30;99.90;;;;;;5039746;28;20188;-96
2021/08/17 06:03:18;;;;;;;11.63;7.97;;;17.40;99.90;;;;;;5038854;28;20200;-93
2021/08/17 06:05:43;;;;;;;13.55;7.07;;;17.40;99.90;;;;;;5039360;28;20184;-92
2021/08/17 06:08:09;;;;;;;14.48;8.13;;;;;;;;;;5039564;28;20561;-94
2021/08/17 06:10:35;;;;;;;10.88;8.70;;;17.30;99.90;;;;;;5056427;28;20180;-93
2021/08/17 06:13:01;;;;;;;11.93;7.88;;;17.40;99.90;;;;;;5038439;28;20225;-95
2021/08/17 06:15:26;;;;;;;12.98;8.50;;;17.30;99.90;;;;;;5022021;28;20188;-95
2021/08/17 06:17:52;;;;;;;16.65;9.02;;;17.20;99.90;;;;;;5056652;28;20196;-95
2021/08/17 06:20:18;;;;;;;12.52;7.78;;;17.30;99.90;;;;;;5056246;28;20262;-94
2021/08/17 06:22:43;;;;;;;14.45;7.13;;;17.20;99.90;;;;;;5050222;28;20212;-92
2021/08/17 06:25:09;;;;;;;9.68;6.57;;;17.20;99.90;;;;;;5064769;28;20188;-94
2021/08/17 06:27:36;;;;;;;11.02;5.43;;;17.20;99.90;;;;;;5049327;28;20184;-92
2021/08/17 06:30:05;;;;;;;6.20;4.60;;;17.20;99.90;;;;;;5027803;28;20179;-93
2021/08/17 06:32:30;;;;;;;8.05;4.57;;;17.20;99.90;;;;;;5039085;28;20183;-93
2021/08/17 06:34:56;;;;;;;8.63;5.18;;;17.20;99.90;;;;;;5038290;28;20184;-93
2021/08/17 06:37:22;;;;;;;6.25;5.00;;;17.20;99.90;;;;;;5038010;28;20176;-91
2021/08/17 06:39:47;;;;;;;10.57;4.70;;;17.30;99.90;;;;;;5004642;28;20180;-94
2021/08/17 06:42:13;;;;;;;8.27;4.82;;;17.40;99.90;;;;;;5039534;28;20211;-94
2021/08/17 06:44:39;;;;;;;7.10;5.20;;;17.40;99.90;;;;;;5028588;28;20192;-94
2021/08/17 06:47:04;;;;;;;10.85;4.78;;;17.50;99.90;;;;;;5040533;28;20633;-94
2021/08/17 06:49:30;;;;;;;6.45;5.35;;;17.50;99.90;;;;;;5027744;28;20180;-94
2021/08/17 06:51:55;;;;;;;9.38;4.72;;;17.50;99.90;;;;;;5057729;28;20209;-92
2021/08/17 06:54:21;;;;;;;10.85;5.93;;;17.60;99.90;;;;;;5039340;28;20231;-94
2021/08/17 06:56:47;;;;;;;7.60;5.25;;;;;;;;;;5037887;28;20184;-93
2021/08/17 06:59:13;;;;;;;9.70;5.40;;;17.60;99.90;;;;;;5039048;28;20203;-91
2021/08/17 07:01:38;;;;;;;7.82;5.65;;;17.60;99.90;;;;;;5057157;28;20176;-93
2021/08/17 07:04:04;;;;;;;10.13;6.18;;;17.60;99.90;;;;;;5037875;28;20184;-93
2021/08/17 07:06:32;;;;;;;11.70;6.15;;;17.60;99.90;;;;;;5022717;28;20695;-92
2021/08/17 07:09:00;;;;;;;11.00;6.63;;;17.60;99.90;;;;;;5007369;28;20574;-92
2021/08/17 07:11:25;;;;;;;10.88;5.70;;;17.50;99.90;;;;;;4999986;28;20242;-95
2021/08/17 07:13:51;;;;;;;8.98;5.90;;;17.40;99.90;;;;;;5036542;28;20188;-93
2021/08/17 07:16:17;;;;;;;8.57;5.50;;;;;;;;;;5022735;28;20180;-96
2021/08/17 07:18:43;;;;;;;7.18;5.18;;;17.30;99.90;;;;;;5040295;28;20176;-95
2021/08/17 07:21:08;;;;;;;8.80;5.10;;;17.40;99.90;;;;;;5036745;28;20188;-95
2021/08/17 07:23:34;;;;;;;6.72;4.88;;;17.50;99.90;;;;;;5021763;28;20221;-96
2021/08/17 07:26:00;;;;;;;8.10;4.72;;;17.50;99.90;;;;;;5033223;28;20204;-94
2021/08/17 07:28:26;;;;;;;11.05;5.43;;;;;;;;;;5018437;28;20185;-94
2021/08/17 07:30:52;;;;;;;11.52;5.10;;;17.50;99.90;;;;;;5036152;28;20271;-96
2021/08/17 07:33:18;;;;;;;8.88;4.55;;;17.50;99.90;;;;;;5036220;28;20180;-95
2021/08/17 07:35:45;;;;;;;9.43;4.70;;;17.60;99.90;;;;;;5035741;28;20197;-95
2021/08/17 07:38:11;;;;;;;9.77;4.63;;;17.50;99.90;;;;;;5033733;28;20176;-95
2021/08/17 07:40:37;;;;;;;8.88;4.90;;;17.50;99.90;;;;;;5016731;28;20683;-94
2021/08/17 07:43:03;;;;;;;9.35;5.45;;;17.50;99.90;;;;;;5040339;28;20849;-94
2021/08/17 07:45:29;;;;;;;12.52;6.53;;;17.50;99.90;;;;;;5039726;28;20186;-95
2021/08/17 07:47:54;;;;;;;7.93;4.65;;;17.50;99.90;;;;;;5034580;28;20256;-94
2021/08/17 07:50:20;;;;;;;8.73;5.00;;;17.50;99.90;;;;;;5023388;28;20196;-96
2021/08/17 07:52:46;;;;;;;10.65;4.70;;;17.50;99.90;;;;;;5037872;28;20191;-96
2021/08/17 07:55:13;;;;;;;9.32;4.97;;;17.50;99.90;;;;;;5039031;28;20834;-95
2021/08/17 07:57:40;;;;;;;8.68;5.28;;;17.50;99.90;;;;;;5041081;28;20242;-96
2021/08/17 08:00:09;;;;;;;12.85;5.22;;;17.40;99.90;;;;;;5021578;28;20183;-94
2021/08/17 08:02:35;;;;;;;7.38;5.13;;;17.40;99.90;;;;;;5038620;28;20231;-96
2021/08/17 08:05:01;;;;;;;11.68;6.32;;;17.50;99.90;;;;;;5039769;28;20183;-95
2021/08/17 08:07:26;;;;;;;9.45;6.00;;;17.50;99.90;;;;;;5023232;28;20666;-93
2021/08/17 08:09:52;;;;;;;9.30;5.28;;;;;;;;;;5020246;28;20186;-96
2021/08/17 08:12:18;;;;;;;9.85;5.65;;;17.70;99.90;;;;;;5054012;28;20207;-95
2021/08/17 08:14:44;;;;;;;9.32;5.53;;;17.70;99.90;;;;;;5057081;28;20263;-95
2021/08/17 08:17:10;;;;;;;14.27;5.95;;;17.80;99.90;;;;;;5041943;28;20275;-94
2021/08/17 08:19:37;;;;;;;11.15;5.10;;;17.90;99.90;;;;;;5039859;28;20176;-94
2021/08/17 08:22:04;;;;;;;8.20;5.10;;;17.90;99.90;;;;;;5037558;28;20207;-93
2021/08/17 08:24:30;;;;;;;8.10;4.70;;;17.90;99.90;;;;;;5054739;28;20176;-94
2021/08/17 08:26:56;;;;;;;13.65;5.57;;;18.00;99.90;;;;;;5060337;28;20659;-92
2021/08/17 08:29:21;;;;;;;9.15;5.05;;;18.00;99.90;;;;;;5027611;28;20663;-94
2021/08/17 08:31:47;;;;;;;9.48;5.93;;;18.00;99.90;;;;;;5023955;28;20206;-92
2021/08/17 08:34:13;;;;;;;8.32;4.82;;;18.10;99.90;;;;;;5040403;28;20184;-91
2021/08/17 08:36:38;;;;;;;6.35;4.53;;;18.00;99.90;;;;;;5040262;28;20176;-91
2021/08/17 08:39:04;;;;;;;6.43;5.07;;;18.00;99.90;;;;;;5008852;28;20207;-91
2021/08/17 08:41:30;;;;;;;7.65;5.07;;;17.80;99.90;;;;;;5028823;28;20640;-89
2021/08/17 08:43:58;;;;;;;12.57;5.80;;;17.70;99.90;;;;;;5043258;28;20254;-90
2021/08/17 08:46:24;;;;;;;13.15;5.50;;;17.60;99.90;;;;;;5057123;28;20262;-93
2021/08/17 08:48:52;;;;;;;14.50;5.85;;;17.60;99.90;;;;;;5023178;28;20184;-93
2021/08/17 08:51:20;;;;;;;12.95;6.05;;;17.50;99.90;;;;;;5036386;28;20168;-91
2021/08/17 08:53:46;;;;;;;12.52;5.35;;;17.50;99.90;;;;;;5039213;28;20179;-92
2021/08/17 08:56:12;;;;;;;8.57;5.95;;;17.50;99.90;;;;;;5038338;28;20536;-92
2021/08/17 08:58:39;;;;;;;9.90;5.72;;;17.50;99.90;;;;;;5038925;28;20542;-92
2021/08/17 09:01:05;;;;;;;9.43;5.47;;;17.50;99.90;;;;;;5039166;28;20555;-93
2021/08/17 09:03:45;;;;;;;8.15;4.72;;;17.50;99.90;;;;;;5056133;28;20258;-92
2021/08/17 09:06:26;;;;;;;4.10;2.70;;;17.50;99.90;;;;;;5038078;28;20176;-89
2021/08/17 09:09:12;;;;;;;2.78;2.28;;;17.30;99.90;;;;;;5054110;28;20176;-90
2021/08/17 09:11:41;;;;;;;5.28;2.05;;;17.10;99.90;;;;;;5055964;28;20175;-90
2021/08/17 09:14:28;;;;;;;2.40;1.80;;;17.00;99.90;;;;;;5037424;28;20184;-88
2021/08/17 09:17:03;;;;;;;2.72;1.67;;;17.00;99.90;;;;;;5053365;28;20163;-91
2021/08/17 09:19:34;;;;;;;3.50;1.70;;;16.90;99.90;;;;;;5021900;28;20583;-89
2021/08/17 09:22:04;;;;;;;5.80;1.88;;;16.90;99.90;;;;;;5055739;28;20259;-89
2021/08/17 09:24:33;;;;;;;3.83;1.98;;;17.00;99.90;;;;;;5038287;28;20183;-93
2021/08/17 09:27:11;;;;;;;3.67;2.20;;;17.00;99.90;;;;;;5055800;28;20172;-90
2021/08/17 09:29:39;;;;;;;4.28;2.22;;;17.00;99.90;;;;;;5053589;28;20179;-91
2021/08/17 09:32:18;;;;;;;5.25;2.22;;;17.10;99.90;;;;;;5057865;28;20172;-92
2021/08/17 09:34:50;;;;;;;5.30;2.10;;;17.20;99.90;;;;;;5018703;28;20626;-91
2021/08/17 09:37:17;;;;;;;3.03;2.05;;;17.20;99.90;;;;;;5018649;28;20731;-95
2021/08/17 09:39:51;;;;;;;7.45;1.80;;;17.20;99.90;;;;;;5036661;28;20263;-93
2021/08/17 09:42:29;;;;;;;7.13;2.22;;;17.20;99.90;;;;;;5034905;28;20212;-92
2021/08/17 09:45:17;;;;;;;3.55;1.70;;;17.20;99.90;;;;;;5037276;28;20172;-94
2021/08/17 09:47:44;;;;;;;2.80;1.60;;;17.10;99.90;;;;;;5055613;28;20170;-91
2021/08/17 09:50:16;;;;;;;3.75;1.63;;;17.10;99.90;;;;;;5038730;28;20176;-94
2021/08/17 09:52:41;;;;;;;11.30;2.22;;;17.10;99.90;;;;;;5039248;28;20237;-91
2021/08/17 09:55:19;;;;;;;3.50;1.90;;;17.10;99.90;;;;;;5038163;28;20248;-93
2021/08/17 09:57:44;;;;;;;4.55;2.33;;;17.10;99.90;;;;;;5055847;28;20176;-92
2021/08/17 10:00:14;;;;;;;2.13;1.80;;;17.20;99.90;;;;;;5019091;28;20192;-93
2021/08/17 10:02:48;;;;;;;2.53;2.22;;;17.20;99.90;;;;;;5036653;28;20196;-92
2021/08/17 10:05:15;;;;;;;5.72;2.90;;;17.20;99.90;;;;;;5054930;28;20180;-91
2021/08/17 10:07:42;;;;;;;2.33;2.00;;;17.20;99.90;;;;;;5039352;28;20172;-92
2021/08/17 10:10:11;;;;;;;4.15;2.13;;;17.20;99.90;;;;;;5038801;28;20187;-91
2021/08/17 10:12:37;;;;;;;3.53;1.75;;;17.10;99.90;;;;;;5038876;28;20180;-89
2021/08/17 10:15:08;;;;;;;5.18;1.90;;;17.00;99.90;;;;;;5056104;28;20258;-89
2021/08/17 10:17:34;;;;;;;7.72;2.17;;;16.90;99.90;;;;;;5036962;28;20639;-92
2021/08/17 10:20:00;;;;;;;3.83;2.10;;;16.80;99.90;;;;;;5037160;28;20187;-92
2021/08/17 10:22:26;;;;;;;4.05;2.22;;;16.70;99.90;;;;;;5022854;28;20206;-93
2021/08/17 10:25:01;;;;;;;5.28;1.98;;;16.60;99.90;;;;;;5029997;28;20252;-91
2021/08/17 10:27:36;;;;;;;3.75;2.33;;;16.60;99.90;;;;;;5054074;28;20175;-93
2021/08/17 10:30:14;;;;;;;6.40;1.85;;;16.60;99.90;;;;;;5053813;28;20176;-94
2021/08/17 10:32:42;;;;;;;2.45;1.63;;;16.60;99.90;;;;;;5053971;28;20176;-93
2021/08/17 10:35:32;;;;;;;1.98;1.70;;;16.60;99.90;;;;;;5056071;28;20203;-92
2021/08/17 10:38:07;;;;;;;2.42;1.77;;;16.70;99.90;;;;;;5071489;28;20164;-92
2021/08/17 10:40:51;;;;;;;5.43;1.80;;;16.80;99.90;;;;;;5055976;28;20179;-93
2021/08/17 10:43:31;;;;;;;5.20;2.00;;;16.70;99.90;;;;;;5050720;28;20218;-91
2021/08/17 10:46:06;;;;;;;3.67;1.70;;;16.70;99.90;;;;;;5051178;28;20183;-92
2021/08/17 10:48:48;;;;;;;4.93;1.90;;;16.70;99.90;;;;;;5045193;28;20171;-94
2021/08/17 10:51:23;;;;;;;6.22;2.13;;;16.70;99.90;;;;;;5047395;28;20255;-93
2021/08/17 10:54:12;;;;;;;4.32;2.17;;;16.80;99.90;;;;;;5058940;28;20268;-88
2021/08/17 10:56:39;;;;;;;3.75;2.00;;;16.70;99.90;;;;;;5063989;28;20168;-92
2021/08/17 10:59:05;;;;;;;5.13;2.33;;;16.90;99.90;;;;;;5038773;28;20183;-90
2021/08/17 11:01:31;;;;;;;2.70;2.00;;;16.90;99.90;;;;;;5036987;28;20229;-92
2021/08/17 11:04:00;;;;;;;4.47;2.25;;;16.90;99.90;;;;;;5037548;28;20215;-92
2021/08/17 11:06:41;;;;;;;11.35;2.20;;;17.00;99.90;;;;;;5036928;28;20176;-94
2021/08/17 11:09:15;;;;;;;6.75;2.60;;;17.10;99.90;;;;;;5054931;28;20803;-92
2021/08/17 11:11:47;;;;;;;5.28;2.42;;;17.10;99.90;;;;;;5041676;28;20172;-93
2021/08/17 11:14:21;;;;;;;4.22;2.25;;;17.10;99.90;;;;;;5037707;28;20249;-93
2021/08/17 11:16:57;;;;;;;3.13;2.40;;;17.00;99.90;;;;;;5020649;28;20180;-94
2021/08/17 11:19:29;;;;;;;5.93;2.60;;;17.00;99.90;;;;;;5037709;28;20190;-94
2021/08/17 11:21:57;;;;;;;8.05;3.22;;;16.90;99.90;;;;;;5054343;28;20358;-92
2021/08/17 11:24:25;;;;;;;8.60;2.58;;;16.90;99.90;;;;;;5054388;28;20180;-91
2021/08/17 11:27:11;;;;;;;4.88;2.60;;;16.90;99.90;;;;;;5053708;28;20178;-92
2021/08/17 11:29:39;;;;;;;5.88;2.92;;;16.90;99.90;;;;;;5037125;28;20186;-91
2021/08/17 11:32:08;;;;;;;4.07;2.47;;;16.90;99.90;;;;;;5037174;28;20188;-91
2021/08/17 11:34:36;;;;;;;8.23;2.85;;;16.80;99.90;;;;;;5036731;28;20191;-91
2021/08/17 11:37:06;;;;;;;10.50;3.03;;;16.90;99.90;;;;;;5021000;28;20199;-93
2021/08/17 11:39:49;;;;;;;5.75;2.92;;;16.90;99.90;;;;;;5036783;28;20212;-91
2021/08/17 11:42:28;;;;;;;6.55;3.08;;;16.90;99.90;;;;;;5054338;28;20203;-90
2021/08/17 11:45:12;;;;;;;5.00;2.78;;;17.00;99.90;;;;;;5054020;28;20171;-93
2021/08/17 11:47:40;;;;;;;4.93;2.30;;;17.10;99.90;;;;;;5053442;28;20195;-92
2021/08/17 11:50:11;;;;;;;4.68;1.88;;;17.20;99.90;;;;;;5034961;28;20180;-92
2021/08/17 11:52:48;;;;;;;8.75;2.08;;;17.10;99.90;;;;;;5034574;28;20624;-93
2021/08/17 11:55:25;;;;;;;4.63;1.73;;;17.30;99.90;;;;;;5052154;28;20231;-92
2021/08/17 11:58:00;;;;;;;6.90;1.85;;;17.40;99.90;;;;;;5034414;28;20593;-90
2021/08/17 12:00:28;;;;;;;3.90;1.88;;;17.60;99.90;;;;;;5041655;28;20171;-90
2021/08/17 12:02:59;;;;;;;4.68;2.22;;;17.70;99.90;;;;;;5042606;28;20237;-90
2021/08/17 12:05:26;;;;;;;7.65;2.42;;;17.70;99.90;;;;;;5041989;28;20175;-90
2021/08/17 12:07:54;;;;;;;3.30;1.55;;;17.70;99.90;;;;;;5040108;28;20180;-89
2021/08/17 12:10:29;;;;;;;1.95;1.52;;;17.80;99.90;;;;;;5039667;28;20529;-89
2021/08/17 12:13:12;;;;;;;6.55;1.83;;;17.80;99.90;;;;;;5057448;28;20179;-90
2021/08/17 12:15:56;;;;;;;2.97;1.60;;;17.70;99.90;;;;;;5061846;28;20176;-90
2021/08/17 12:18:31;;;;;;;4.22;1.83;;;17.70;99.90;;;;;;5047564;28;20222;-90
2021/08/17 12:21:10;;;;;;;4.28;2.33;;;17.80;99.90;;;;;;5044376;28;20207;-91
2021/08/17 12:23:44;;;;;;;6.47;2.20;;;17.80;99.90;;;;;;5063013;28;20210;-90
2021/08/17 12:26:12;;;;;;;8.32;1.92;;;18.20;99.90;;;;;;5043378;28;20194;-89
2021/08/17 12:28:39;;;;;;;2.60;1.77;;;18.40;99.90;;;;;;5028735;28;20584;-90
2021/08/17 12:31:28;;;;;;;5.43;1.90;;;18.50;99.90;;;;;;5039659;28;20184;-89
2021/08/17 12:33:57;;;;;;;5.57;2.00;;;18.50;99.90;;;;;;5057372;28;20179;-88
2021/08/17 12:36:49;;;;;;;4.35;2.25;;;18.20;99.90;;;;;;5038856;28;20305;-89
2021/08/17 12:39:18;;;;;;;5.90;1.65;;;18.00;99.90;;;;;;5061982;28;20172;-90
2021/08/17 12:42:06;;;;;;;4.10;1.83;;;18.20;99.90;;;;;;5041045;28;20176;-89
2021/08/17 12:44:36;;;;;;;5.60;2.08;;;18.60;99.90;;;;;;5039587;28;20545;-88
2021/08/17 12:47:11;;;;;;;5.82;2.45;;;18.70;99.90;;;;;;5039726;28;20616;-89
2021/08/17 12:49:39;;;;;;;4.30;1.60;;;18.70;99.90;;;;;;5022689;28;20656;-88
2021/08/17 12:52:27;;;;;;;4.63;1.67;;;18.50;99.90;;;;;;5038463;28;20184;-90
2021/08/17 12:54:55;;;;;;;4.68;2.03;;;18.50;99.90;;;;;;5037996;28;20243;-88